createdAt,value
2019-05-22T00:00:17.450Z,100.00
2019-05-22T00:02:47.753Z,100.00
2019-05-22T00:05:17.722Z,100.00
2019-05-22T00:07:46.975Z,100.00
2019-05-22T00:10:20.223Z,100.00
2019-05-22T00:12:49.559Z,100.00
2019-05-22T00:15:18.754Z,100.00
2019-05-22T00:17:49.161Z,100.00
2019-05-22T00:20:19.790Z,100.00
2019-05-22T00:22:48.140Z,100.00
2019-05-22T00:25:23.932Z,100.00
2019-05-22T00:27:53.781Z,100.00
2019-05-22T00:30:23.781Z,100.00
2019-05-22T00:32:52.342Z,100.00
2019-05-22T00:35:21.753Z,100.00
2019-05-22T00:37:51.075Z,100.00
2019-05-22T00:40:20.497Z,100.00
2019-05-22T00:43:03.429Z,100.00
2019-05-22T00:45:22.377Z,100.00
2019-05-22T00:47:52.305Z,100.00
2019-05-22T00:50:30.698Z,100.00
2019-05-22T00:53:05.062Z,100.00
2019-05-22T00:55:41.389Z,100.00
2019-05-22T00:58:26.619Z,100.00
2019-05-22T01:01:01.378Z,100.00
2019-05-22T01:03:31.987Z,100.00
2019-05-22T01:06:01.403Z,100.00
2019-05-22T01:08:29.681Z,100.00
2019-05-22T01:11:00.990Z,100.00
2019-05-22T01:13:30.660Z,100.00
2019-05-22T01:15:59.403Z,100.00
2019-05-22T01:18:28.370Z,100.00
2019-05-22T01:20:59.118Z,100.00
2019-05-22T01:23:30.094Z,100.00
2019-05-22T01:26:00.489Z,100.00
2019-05-22T01:28:30.129Z,100.00
2019-05-22T01:31:02.889Z,100.00
2019-05-22T01:33:32.872Z,100.00
2019-05-22T01:36:02.795Z,100.00
2019-05-22T01:38:32.701Z,100.00
2019-05-22T01:41:05.810Z,100.00
2019-05-22T01:43:34.941Z,100.00
2019-05-22T01:46:03.892Z,100.00
2019-05-22T01:48:37.383Z,100.00
2019-05-22T01:51:07.108Z,100.00
2019-05-22T01:53:42.019Z,100.00
2019-05-22T01:56:12.220Z,100.00
2019-05-22T01:58:42.814Z,100.00
2019-05-22T02:01:16.940Z,100.00
2019-05-22T02:03:47.044Z,100.00
2019-05-22T02:06:17.853Z,100.00
2019-05-22T02:08:53.246Z,100.00
2019-05-22T02:11:23.263Z,100.00
2019-05-22T02:13:54.997Z,100.00
2019-05-22T02:16:24.041Z,100.00
2019-05-22T02:18:52.498Z,100.00
2019-05-22T02:21:21.640Z,100.00
2019-05-22T02:23:49.922Z,100.00
2019-05-22T02:26:19.766Z,100.00
2019-05-22T02:28:48.800Z,100.00
2019-05-22T02:31:18.714Z,100.00
2019-05-22T02:34:03.469Z,100.00
2019-05-22T02:36:32.785Z,100.00
2019-05-22T02:39:01.142Z,100.00
2019-05-22T02:41:42.113Z,100.00
2019-05-22T02:44:10.676Z,100.00
2019-05-22T02:46:39.247Z,100.00
2019-05-22T02:49:09.530Z,100.00
2019-05-22T02:51:37.933Z,100.00
2019-05-22T02:54:06.920Z,100.00
2019-05-22T02:56:36.067Z,100.00
2019-05-22T02:59:07.555Z,100.00
2019-05-22T03:01:37.037Z,100.00
2019-05-22T03:04:05.668Z,100.00
2019-05-22T03:06:35.657Z,100.00
2019-05-22T03:09:10.758Z,100.00
2019-05-22T03:11:42.535Z,100.00
2019-05-22T03:14:12.492Z,100.00
2019-05-22T03:16:56.263Z,100.00
2019-05-22T03:19:40.403Z,100.00
2019-05-22T03:22:27.571Z,100.00
2019-05-22T03:24:57.861Z,100.00
2019-05-22T03:27:43.988Z,100.00
2019-05-22T03:30:27.711Z,100.00
2019-05-22T03:32:56.979Z,100.00
2019-05-22T03:35:26.256Z,100.00
2019-05-22T03:37:56.221Z,100.00
2019-05-22T03:40:26.515Z,100.00
2019-05-22T03:42:55.247Z,100.00
2019-05-22T03:45:23.607Z,100.00
2019-05-22T03:47:52.948Z,100.00
2019-05-22T03:50:22.814Z,100.00
2019-05-22T03:52:51.814Z,100.00
2019-05-22T03:55:20.982Z,100.00
2019-05-22T03:57:49.722Z,100.00
2019-05-22T04:00:19.598Z,100.00
2019-05-22T04:02:53.723Z,100.00
2019-05-22T04:05:23.160Z,100.00
2019-05-22T04:07:53.677Z,100.00
2019-05-22T04:10:23.856Z,100.00
2019-05-22T04:12:53.676Z,100.00
2019-05-22T04:15:23.328Z,100.00
2019-05-22T04:17:52.368Z,100.00
2019-05-22T04:20:20.878Z,100.00
2019-05-22T04:22:51.069Z,100.00
2019-05-22T04:25:19.429Z,100.00
2019-05-22T04:27:47.734Z,100.00
2019-05-22T04:30:17.935Z,100.00
2019-05-22T04:32:46.489Z,100.00
2019-05-22T04:35:17.308Z,100.00
2019-05-22T04:37:47.283Z,100.00
2019-05-22T04:40:25.558Z,100.00
2019-05-22T04:42:54.580Z,100.00
2019-05-22T04:45:24.773Z,100.00
2019-05-22T04:47:58.494Z,100.00
2019-05-22T04:50:29.047Z,100.00
2019-05-22T04:52:57.794Z,100.00
2019-05-22T04:55:26.948Z,100.00
2019-05-22T04:57:55.386Z,100.00
2019-05-22T05:00:23.906Z,100.00
2019-05-22T05:02:53.096Z,100.00
2019-05-22T05:05:24.518Z,100.00
2019-05-22T05:07:53.778Z,100.00
2019-05-22T05:10:22.348Z,100.00
2019-05-22T05:12:50.846Z,100.00
2019-05-22T05:15:19.108Z,100.00
2019-05-22T05:17:47.439Z,100.00
2019-05-22T05:20:22.583Z,100.00
2019-05-22T05:22:47.473Z,100.00
2019-05-22T05:25:18.198Z,100.00
2019-05-22T05:27:47.539Z,100.00
2019-05-22T05:30:18.241Z,100.00
2019-05-22T05:32:47.576Z,100.00
2019-05-22T05:35:17.650Z,100.00
2019-05-22T05:37:46.515Z,100.00
2019-05-22T05:40:20.905Z,100.00
2019-05-22T05:42:49.955Z,100.00
2019-05-22T05:45:18.335Z,100.00
2019-05-22T05:47:46.683Z,100.00
2019-05-22T05:50:14.996Z,100.00
2019-05-22T05:52:43.979Z,100.00
2019-05-22T05:55:12.834Z,100.00
2019-05-22T05:57:53.633Z,100.00
2019-05-22T06:00:44.497Z,100.00
2019-05-22T06:03:29.880Z,100.00
2019-05-22T06:05:58.908Z,100.00
2019-05-22T06:08:27.199Z,100.00
2019-05-22T06:11:03.228Z,100.00
2019-05-22T06:13:31.995Z,100.00
2019-05-22T06:16:11.113Z,100.00
2019-05-22T06:18:39.854Z,100.00
2019-05-22T06:21:08.631Z,100.00
2019-05-22T06:23:42.209Z,100.00
2019-05-22T06:26:13.388Z,100.00
2019-05-22T06:28:42.341Z,100.00
2019-05-22T06:31:38.027Z,100.00
2019-05-22T06:34:06.875Z,100.00
2019-05-22T06:36:36.785Z,100.00
2019-05-22T06:39:09.051Z,100.00
2019-05-22T06:41:38.542Z,100.00
2019-05-22T06:44:35.302Z,100.00
2019-05-22T06:47:04.911Z,100.00
2019-05-22T06:49:35.140Z,100.00
2019-05-22T06:52:04.472Z,100.00
2019-05-22T06:54:33.019Z,100.00
2019-05-22T06:57:01.462Z,100.00
2019-05-22T06:59:29.833Z,100.00
2019-05-22T07:02:01.706Z,100.00
2019-05-22T07:04:29.774Z,100.00
2019-05-22T07:06:58.566Z,100.00
2019-05-22T07:09:28.086Z,100.00
2019-05-22T07:11:58.007Z,100.00
2019-05-22T07:14:27.123Z,100.00
2019-05-22T07:16:55.992Z,100.00
2019-05-22T07:19:24.765Z,100.00
2019-05-22T07:21:53.242Z,100.00
2019-05-22T07:24:22.688Z,100.00
2019-05-22T07:26:52.444Z,100.00
2019-05-22T07:29:20.985Z,100.00
2019-05-22T07:31:49.352Z,100.00
2019-05-22T07:34:18.581Z,100.00
2019-05-22T07:36:46.886Z,100.00
2019-05-22T07:39:15.230Z,100.00
2019-05-22T07:41:43.520Z,100.00
2019-05-22T07:44:11.817Z,100.00
2019-05-22T07:46:40.546Z,100.00
2019-05-22T07:49:09.010Z,100.00
2019-05-22T07:51:50.534Z,100.00
2019-05-22T07:54:07.379Z,100.00
2019-05-22T07:56:36.469Z,100.00
2019-05-22T07:59:05.303Z,100.00
2019-05-22T08:01:33.629Z,100.00
2019-05-22T08:04:02.889Z,100.00
2019-05-22T08:06:31.356Z,100.00
2019-05-22T08:08:59.925Z,100.00
2019-05-22T08:11:28.383Z,100.00
2019-05-22T08:13:57.732Z,100.00
2019-05-22T08:16:26.582Z,100.00
2019-05-22T08:18:54.897Z,100.00
2019-05-22T08:21:23.872Z,100.00
2019-05-22T08:23:53.878Z,100.00
2019-05-22T08:26:23.805Z,100.00
2019-05-22T08:28:52.166Z,100.00
2019-05-22T08:31:22.093Z,100.00
2019-05-22T08:33:50.442Z,100.00
2019-05-22T08:36:18.733Z,100.00
2019-05-22T08:38:47.031Z,100.00
2019-05-22T08:41:16.649Z,100.00
2019-05-22T08:44:15.219Z,100.00
2019-05-22T08:46:17.140Z,100.00
2019-05-22T08:48:48.708Z,100.00
2019-05-22T08:51:15.848Z,100.00
2019-05-22T08:53:48.167Z,100.00
2019-05-22T08:56:14.615Z,100.00
2019-05-22T08:58:44.955Z,100.00
2019-05-22T09:01:14.263Z,100.00
2019-05-22T09:03:42.646Z,100.00
2019-05-22T09:06:11.323Z,100.00
2019-05-22T09:08:40.267Z,100.00
2019-05-22T09:11:09.111Z,100.00
2019-05-22T09:13:38.358Z,100.00
2019-05-22T09:16:08.948Z,100.00
2019-05-22T09:18:37.320Z,100.00
2019-05-22T09:21:05.982Z,100.00
2019-05-22T09:23:35.985Z,100.00
2019-05-22T09:26:05.676Z,100.00
2019-05-22T09:28:34.003Z,100.00
2019-05-22T09:31:02.303Z,100.00
2019-05-22T09:33:31.247Z,100.00
2019-05-22T09:35:59.604Z,100.00
2019-05-22T09:38:28.166Z,100.00
2019-05-22T09:40:56.529Z,100.00
2019-05-22T09:43:24.896Z,100.00
2019-05-22T09:45:53.822Z,100.00
2019-05-22T09:48:22.267Z,100.00
2019-05-22T09:50:50.534Z,100.00
2019-05-22T09:53:19.649Z,100.00
2019-05-22T09:55:48.202Z,100.00
2019-05-22T09:58:16.671Z,100.00
2019-05-22T10:00:45.130Z,100.00
2019-05-22T10:03:13.538Z,100.00
2019-05-22T10:05:42.345Z,100.00
2019-05-22T10:08:10.740Z,100.00
2019-05-22T10:10:39.585Z,100.00
2019-05-22T10:13:08.054Z,100.00
2019-05-22T10:15:36.352Z,100.00
2019-05-22T10:18:06.034Z,100.00
2019-05-22T10:20:34.653Z,100.00
2019-05-22T10:23:14.798Z,100.00
2019-05-22T10:25:35.040Z,100.00
2019-05-22T10:28:04.468Z,100.00
2019-05-22T10:30:32.886Z,100.00
2019-05-22T10:33:01.144Z,100.00
2019-05-22T10:35:31.090Z,100.00
2019-05-22T10:37:59.538Z,100.00
2019-05-22T10:40:28.173Z,100.00
2019-05-22T10:42:57.236Z,100.00
2019-05-22T10:45:27.154Z,100.00
2019-05-22T10:47:55.435Z,100.00
2019-05-22T10:50:24.990Z,100.00
2019-05-22T10:52:54.910Z,100.00
2019-05-22T10:55:24.123Z,100.00
2019-05-22T10:57:52.569Z,100.00
2019-05-22T11:00:21.901Z,100.00
2019-05-22T11:02:50.216Z,100.00
2019-05-22T11:05:20.105Z,100.00
2019-05-22T11:07:49.025Z,100.00
2019-05-22T11:10:19.991Z,100.00
2019-05-22T11:12:48.511Z,100.00
2019-05-22T11:15:17.428Z,100.00
2019-05-22T11:17:45.705Z,100.00
2019-05-22T11:20:14.378Z,100.00
2019-05-22T11:22:42.643Z,100.00
2019-05-22T11:25:12.662Z,100.00
2019-05-22T11:27:41.297Z,100.00
2019-05-22T11:30:14.096Z,100.00
2019-05-22T11:32:42.620Z,100.00
2019-05-22T11:35:11.411Z,100.00
2019-05-22T11:37:39.963Z,100.00
2019-05-22T11:40:08.566Z,100.00
2019-05-22T11:42:38.126Z,100.00
2019-05-22T11:45:08.489Z,100.00
2019-05-22T11:47:36.805Z,100.00
2019-05-22T11:50:09.680Z,100.00
2019-05-22T11:52:38.040Z,100.00
2019-05-22T11:55:06.640Z,100.00
2019-05-22T11:57:35.384Z,100.00
2019-05-22T12:00:09.351Z,100.00
2019-05-22T12:02:39.468Z,100.00
2019-05-22T12:05:10.403Z,100.00
2019-05-22T12:07:43.459Z,100.00
2019-05-22T12:10:12.550Z,100.00
2019-05-22T12:12:41.392Z,100.00
2019-05-22T12:15:10.402Z,100.00
2019-05-22T12:17:39.239Z,100.00
2019-05-22T12:20:09.846Z,100.00
2019-05-22T12:22:38.495Z,100.00
2019-05-22T12:25:09.381Z,100.00
2019-05-22T12:27:37.681Z,100.00
2019-05-22T12:30:08.979Z,100.00
2019-05-22T12:32:38.042Z,100.00
2019-05-22T12:35:07.207Z,100.00
2019-05-22T12:37:35.680Z,100.00
2019-05-22T12:40:07.919Z,100.00
2019-05-22T12:42:36.377Z,100.00
2019-05-22T12:45:09.604Z,100.00
2019-05-22T12:47:38.301Z,100.00
2019-05-22T12:50:08.114Z,100.00
2019-05-22T12:52:36.591Z,100.00
2019-05-22T12:55:06.198Z,100.00
2019-05-22T12:57:34.578Z,100.00
2019-05-22T13:00:04.722Z,100.00
2019-05-22T13:02:34.773Z,100.00
2019-05-22T13:05:03.080Z,100.00
2019-05-22T13:07:31.628Z,100.00
2019-05-22T13:09:59.917Z,100.00
2019-05-22T13:12:28.466Z,100.00
2019-05-22T13:15:08.836Z,100.00
2019-05-22T13:17:27.808Z,100.00
2019-05-22T13:19:56.797Z,100.00
2019-05-22T13:22:26.401Z,100.00
2019-05-22T13:24:55.207Z,100.00
2019-05-22T13:27:23.579Z,99.61
2019-05-22T13:29:52.449Z,98.70
2019-05-22T13:32:21.567Z,99.54
2019-05-22T13:34:51.089Z,99.94
2019-05-22T13:37:19.430Z,98.24
2019-05-22T13:39:47.719Z,100.00
2019-05-22T13:42:15.993Z,99.54
2019-05-22T13:44:44.372Z,98.48
2019-05-22T13:47:13.125Z,98.64
2019-05-22T13:49:42.615Z,98.89
2019-05-22T13:52:11.845Z,99.28
2019-05-22T13:54:40.301Z,100.00
2019-05-22T13:57:09.135Z,99.26
2019-05-22T13:59:37.805Z,99.75
2019-05-22T14:02:06.167Z,98.61
2019-05-22T14:04:34.644Z,100.00
2019-05-22T14:07:03.295Z,100.00
2019-05-22T14:09:32.426Z,100.00
2019-05-22T14:12:00.794Z,99.67
2019-05-22T14:14:29.234Z,99.09
2019-05-22T14:16:57.509Z,95.90
2019-05-22T14:19:25.809Z,97.16
2019-05-22T14:21:54.192Z,97.26
2019-05-22T14:24:22.499Z,96.17
2019-05-22T14:26:50.912Z,99.20
2019-05-22T14:29:19.264Z,96.00
2019-05-22T14:31:47.551Z,94.67
2019-05-22T14:34:16.018Z,96.72
2019-05-22T14:36:44.762Z,96.50
2019-05-22T14:39:13.976Z,91.92
2019-05-22T14:41:42.359Z,91.54
2019-05-22T14:44:10.881Z,89.99
2019-05-22T14:46:39.240Z,88.50
2019-05-22T14:49:07.534Z,89.71
2019-05-22T14:51:35.808Z,85.02
2019-05-22T14:54:04.977Z,84.24
2019-05-22T14:56:33.605Z,84.06
2019-05-22T14:59:02.127Z,85.05
2019-05-22T15:01:30.474Z,83.01
2019-05-22T15:03:58.752Z,82.49
2019-05-22T15:06:27.408Z,81.38
2019-05-22T15:08:55.669Z,82.38
2019-05-22T15:11:23.937Z,82.68
2019-05-22T15:13:52.499Z,84.62
2019-05-22T15:16:21.357Z,85.11
2019-05-22T15:18:49.638Z,82.96
2019-05-22T15:21:18.311Z,79.97
2019-05-22T15:23:47.695Z,78.65
2019-05-22T15:26:16.108Z,78.94
2019-05-22T15:28:44.492Z,79.71
2019-05-22T15:31:12.808Z,80.17
2019-05-22T15:33:42.272Z,81.15
2019-05-22T15:36:12.662Z,80.11
2019-05-22T15:38:42.239Z,81.50
2019-05-22T15:41:10.834Z,80.46
2019-05-22T15:43:40.944Z,81.96
2019-05-22T15:46:10.165Z,81.12
2019-05-22T15:48:39.638Z,82.09
2019-05-22T15:51:09.927Z,84.75
2019-05-22T15:53:39.553Z,81.89
2019-05-22T15:56:09.316Z,82.14
2019-05-22T15:58:41.193Z,82.72
2019-05-22T16:01:10.926Z,82.31
2019-05-22T16:03:41.036Z,82.73
2019-05-22T16:06:10.505Z,83.18
2019-05-22T16:08:38.950Z,81.79
2019-05-22T16:11:09.161Z,82.87
2019-05-22T16:13:39.128Z,83.27
2019-05-22T16:16:09.585Z,82.89
2019-05-22T16:18:38.249Z,82.00
2019-05-22T16:21:09.018Z,82.30
2019-05-22T16:23:38.306Z,81.41
2019-05-22T16:26:07.986Z,82.40
2019-05-22T16:28:38.570Z,82.90
2019-05-22T16:31:10.336Z,80.55
2019-05-22T16:33:41.539Z,82.59
2019-05-22T16:36:10.203Z,83.30
2019-05-22T16:38:39.034Z,82.64
2019-05-22T16:41:07.693Z,83.13
2019-05-22T16:43:48.868Z,81.45
2019-05-22T16:46:07.788Z,82.88
2019-05-22T16:48:37.065Z,85.59
2019-05-22T16:51:06.713Z,85.62
2019-05-22T16:53:35.331Z,84.82
2019-05-22T16:56:03.701Z,84.30
2019-05-22T16:58:32.427Z,82.21
2019-05-22T17:01:00.712Z,83.53
2019-05-22T17:03:29.195Z,83.31
2019-05-22T17:05:57.758Z,83.48
2019-05-22T17:08:28.132Z,83.48
2019-05-22T17:10:59.422Z,83.49
2019-05-22T17:13:30.069Z,85.44
2019-05-22T17:15:58.683Z,82.79
2019-05-22T17:18:45.569Z,84.74
2019-05-22T17:20:58.889Z,84.12
2019-05-22T17:23:27.849Z,84.17
2019-05-22T17:25:58.023Z,84.57
2019-05-22T17:28:27.084Z,84.02
2019-05-22T17:30:56.253Z,85.09
2019-05-22T17:33:24.552Z,85.22
2019-05-22T17:35:53.272Z,86.13
2019-05-22T17:38:23.014Z,87.53
2019-05-22T17:40:52.043Z,86.49
2019-05-22T17:43:21.264Z,86.96
2019-05-22T17:45:49.785Z,87.80
2019-05-22T17:48:18.932Z,87.68
2019-05-22T17:50:47.366Z,88.50
2019-05-22T17:53:17.719Z,86.77
2019-05-22T17:55:47.005Z,86.57
2019-05-22T17:58:15.548Z,88.55
2019-05-22T18:00:51.361Z,87.46
2019-05-22T18:03:19.926Z,88.42
2019-05-22T18:05:48.682Z,87.33
2019-05-22T18:08:17.830Z,88.45
2019-05-22T18:10:48.561Z,87.88
2019-05-22T18:13:17.092Z,87.40
2019-05-22T18:15:46.430Z,86.16
2019-05-22T18:18:15.049Z,88.20
2019-05-22T18:20:44.322Z,87.95
2019-05-22T18:23:12.665Z,89.87
2019-05-22T18:25:41.290Z,90.83
2019-05-22T18:28:10.639Z,92.72
2019-05-22T18:30:40.619Z,89.79
2019-05-22T18:33:09.763Z,88.97
2019-05-22T18:35:38.333Z,90.64
2019-05-22T18:38:06.743Z,90.80
2019-05-22T18:40:35.204Z,92.18
2019-05-22T18:43:03.475Z,92.50
2019-05-22T18:45:35.012Z,90.87
2019-05-22T18:48:04.354Z,91.82
2019-05-22T18:50:32.815Z,92.34
2019-05-22T18:53:01.133Z,92.24
2019-05-22T18:55:30.521Z,94.41
2019-05-22T18:57:58.967Z,92.80
2019-05-22T19:00:28.894Z,93.97
2019-05-22T19:02:57.539Z,95.00
2019-05-22T19:05:28.022Z,96.73
2019-05-22T19:07:56.312Z,95.29
2019-05-22T19:10:24.667Z,95.08
2019-05-22T19:12:53.018Z,96.34
2019-05-22T19:15:22.671Z,97.16
2019-05-22T19:17:51.094Z,96.80
2019-05-22T19:20:19.365Z,96.62
2019-05-22T19:22:59.156Z,98.39
2019-05-22T19:25:18.241Z,97.58
2019-05-22T19:27:46.601Z,99.01
2019-05-22T19:30:19.053Z,99.01
2019-05-22T19:32:47.957Z,100.00
2019-05-22T19:35:16.235Z,100.00
2019-05-22T19:37:45.879Z,100.00
2019-05-22T19:40:16.996Z,100.00
2019-05-22T19:42:45.302Z,100.00
2019-05-22T19:45:14.293Z,100.00
2019-05-22T19:47:49.817Z,100.00
2019-05-22T19:50:23.080Z,100.00
2019-05-22T19:52:51.855Z,100.00
2019-05-22T19:55:21.487Z,100.00
2019-05-22T19:57:51.184Z,100.00
2019-05-22T20:00:19.589Z,100.00
2019-05-22T20:02:50.690Z,100.00
2019-05-22T20:05:18.594Z,100.00
2019-05-22T20:07:47.321Z,100.00
2019-05-22T20:10:15.591Z,100.00
2019-05-22T20:12:43.901Z,100.00
2019-05-22T20:15:12.325Z,100.00
2019-05-22T20:17:40.927Z,100.00
2019-05-22T20:20:11.227Z,100.00
2019-05-22T20:22:40.035Z,100.00
2019-05-22T20:25:08.756Z,100.00
2019-05-22T20:27:37.114Z,100.00
2019-05-22T20:30:07.132Z,100.00
2019-05-22T20:32:36.053Z,100.00
2019-05-22T20:35:05.850Z,100.00
2019-05-22T20:37:34.611Z,100.00
2019-05-22T20:40:03.234Z,100.00
2019-05-22T20:42:32.959Z,100.00
2019-05-22T20:45:01.884Z,100.00
2019-05-22T20:47:31.845Z,100.00
2019-05-22T20:50:01.514Z,100.00
2019-05-22T20:52:30.663Z,100.00
2019-05-22T20:54:59.429Z,100.00
2019-05-22T20:57:28.209Z,100.00
2019-05-22T20:59:56.636Z,100.00
2019-05-22T21:02:26.616Z,100.00
2019-05-22T21:04:57.507Z,100.00
2019-05-22T21:07:34.770Z,100.00
2019-05-22T21:10:03.882Z,100.00
2019-05-22T21:12:35.747Z,100.00
2019-05-22T21:15:03.482Z,100.00
2019-05-22T21:17:31.749Z,100.00
2019-05-22T21:20:00.683Z,100.00
2019-05-22T21:22:32.015Z,100.00
2019-05-22T21:25:00.246Z,100.00
2019-05-22T21:27:28.997Z,100.00
2019-05-22T21:29:57.563Z,100.00
2019-05-22T21:32:25.920Z,100.00
2019-05-22T21:34:55.176Z,100.00
2019-05-22T21:37:24.402Z,100.00
2019-05-22T21:39:52.850Z,100.00
2019-05-22T21:42:21.486Z,100.00
2019-05-22T21:44:50.036Z,100.00
2019-05-22T21:47:18.600Z,100.00
2019-05-22T21:49:47.028Z,100.00
2019-05-22T21:52:15.669Z,100.00
2019-05-22T21:54:44.390Z,100.00
2019-05-22T21:57:13.449Z,100.00
2019-05-22T21:59:41.795Z,100.00
2019-05-22T22:02:21.031Z,100.00
2019-05-22T22:04:49.535Z,100.00
2019-05-22T22:07:18.411Z,100.00
2019-05-22T22:09:47.073Z,100.00
2019-05-22T22:12:19.480Z,100.00
2019-05-22T22:14:49.619Z,100.00
2019-05-22T22:17:19.568Z,100.00
2019-05-22T22:19:49.170Z,100.00
2019-05-22T22:22:23.736Z,100.00
2019-05-22T22:24:52.288Z,100.00
2019-05-22T22:27:20.646Z,100.00
2019-05-22T22:29:49.561Z,100.00
2019-05-22T22:32:19.574Z,100.00
2019-05-22T22:34:48.587Z,100.00
2019-05-22T22:37:17.427Z,100.00
2019-05-22T22:39:47.494Z,100.00
2019-05-22T22:42:17.082Z,100.00
2019-05-22T22:44:48.050Z,100.00
2019-05-22T22:47:18.458Z,100.00
2019-05-22T22:49:48.064Z,100.00
2019-05-22T22:52:17.328Z,100.00
2019-05-22T22:54:46.091Z,100.00
2019-05-22T22:57:14.740Z,100.00
2019-05-22T22:59:43.254Z,100.00
2019-05-22T23:02:14.252Z,100.00
2019-05-22T23:04:43.407Z,100.00
2019-05-22T23:07:11.768Z,100.00
2019-05-22T23:09:42.503Z,100.00
2019-05-22T23:12:12.458Z,100.00
2019-05-22T23:14:45.381Z,100.00
2019-05-22T23:17:13.735Z,100.00
2019-05-22T23:19:42.680Z,100.00
2019-05-22T23:22:19.482Z,100.00
2019-05-22T23:24:49.431Z,100.00
2019-05-22T23:27:19.252Z,100.00
2019-05-22T23:29:48.195Z,100.00
2019-05-22T23:32:18.377Z,100.00
2019-05-22T23:34:47.265Z,100.00
2019-05-22T23:37:17.462Z,100.00
2019-05-22T23:39:46.178Z,100.00
2019-05-22T23:42:17.442Z,100.00
2019-05-22T23:44:46.194Z,100.00
2019-05-22T23:47:15.461Z,100.00
2019-05-22T23:49:43.828Z,100.00
2019-05-22T23:52:13.832Z,100.00
2019-05-22T23:54:43.770Z,100.00
2019-05-22T23:57:13.843Z,100.00
2019-05-22T23:59:42.432Z,100.00
